Airfield :







YOU CAN JOIN US ON...

 
LOGIN :

Register | Disclaimer

   EN    FR    IT 

 









Legend :    VFR   Marginal VFR   IFR   Intensive IFR   Very Intensive IFR
Visi :
Ceiling :
>= 8 km
>= 3000ft
5 to 8 km
1000 to 3000 ft
1500m to 5 km
500 to 1000 ft
800 to 1500m
200 to 500 ft
< 800m
< 200 ft
Symbols :   Thunderstorms  Fog  Heavy snow  Heavy precipitations  Wind > 20 kt






- Airport Elevation : 496 ft
- IATA code : YQX


CYQX - Gander

CURRENT METAR :
  • 010500Z 09003KT 1/8SM R13/1600FT/N R03/1800FT/N FG VV001 00/00 A3005 RMK FG8 SLP186

EXPIRED METARs :
  • 010400Z 04006KT 1/8SM R13/2600FT/N R03/3500FT/N FZFG VV001 M00/M00 A3005 RMK FG8 OCNL -FZDZ SLP185
  • 010317Z 02003KT 1/4SM R13/3000FT/N R03/3500V5000FT/D -FZDZ FG VV001 00/M00 A3006 RMK FG8 SLP188

TAF TAF CYQX
Valid from the 01 at 06:00 until the 02 at 06:00 UTC


010538Z 0106/0206 10008KT 1/4SM -DZ FG VV001
TEMPO 0106/0115 3/4SM BR OVC003
PROB30 0106/0115 1/2SM -FZDZ FZFG VV002
FM011500 10012KT 1/2SM -DZ FG VV002
TEMPO 0115/0123 1/4SM FG VV001
FM012300 10010KT 1/4SM -DZ FG VV001
PROB30 0123/0206 1/2SM -FZDZ FZFG VV002 RMK NXT FCST BY 011200Z



MET'MAP, your aeronautical weather chart ! - Copyright ORBIFLY December 2007 - Disclaimer

ORBIFLY MET'MAP TEAM :

Programming & Development : Alexandra Zaïnal
Concept & original design : Baudouin d'Aumeries
Assistance for programming : Marc-Olivier Méhu
Technical & hardware support : Manuel Goepfert

Contact : metmap@orbifly.com




SOURCES & CREDITS :

   NOAA